Aviation Digital Data Service (ADDS)

Output produced by METARs form (1839 UTC 18 June 2019)
found at http://www.aviationweather.gov/metar/data/
 
LBBG 181830Z 08005KT 9999 FEW039 22/18 Q1013 NOSIG
TAF LBBG 181700Z 1818/1918 09010KT CAVOK 
     BECMG 1820/1822 VRB04KT 
     BECMG 1908/1910 12012KT SCT040
       
LBGO 181830Z AUTO 00000KT 9999 NCD 20/20 Q1014
TAF LBGO 181700Z 1818/1918 VRB04KT 9999 SCT055 
     TEMPO 1818/1821 5000 TSRA SCT030CB BKN040 
     TEMPO 1900/1906 1500 BR SCT010 
     PROB40 1901/1905 0600 BCFG BKN005 
     BECMG 1906/1908 09010KT 
     PROB40 
     TEMPO 1910/1918 5000 TSRA SCT030CB BKN040
       
LBPD 181830Z AUTO 16006KT 9999 TS SCT076 25/16 Q1014 NOSIG
TAF LBPD 181700Z 1818/1918 VRB04KT 9999 SCT060 
     BECMG 1907/1909 09010KT 
     PROB30 
     TEMPO 1910/1918 5000 TSRA SCT030CB BKN040
       
LBSF 181830Z 07004KT 9999 FEW040TCU 22/17 Q1016 NOSIG
TAF LBSF 181700Z 1818/1918 VRB04KT 9999 SCT050 
     BECMG 1909/1911 11010KT 
     PROB40 
     TEMPO 1911/1916 TSRA SCT040CB
       
LBWN 181830Z 36004KT CAVOK 23/18 Q1014 NOSIG
TAF LBWN 181700Z 1818/1918 VRB04KT CAVOK 
     BECMG 1909/1911 12012KT SCT040 
     PROB30 
     TEMPO 1911/1917 5000 TSRA FEW030CB BKN040